sensor_id;sensor_type;location;lat;lon;timestamp;P1;durP1;ratioP1;P2;durP2;ratioP2
33593;SDS011;19920;52.242;20.940;2024-02-15T00:01:51;13.45;;;6.88;;
33593;SDS011;19920;52.242;20.940;2024-02-15T00:04:16;13.25;;;6.85;;
33593;SDS011;19920;52.242;20.940;2024-02-15T00:06:44;13.35;;;6.15;;
33593;SDS011;19920;52.242;20.940;2024-02-15T00:09:10;15.52;;;7.10;;
33593;SDS011;19920;52.242;20.940;2024-02-15T00:11:35;15.50;;;6.97;;
33593;SDS011;19920;52.242;20.940;2024-02-15T00:14:01;14.63;;;7.07;;
33593;SDS011;19920;52.242;20.940;2024-02-15T00:16:27;12.43;;;6.70;;
33593;SDS011;19920;52.242;20.940;2024-02-15T00:18:52;11.25;;;6.47;;
33593;SDS011;19920;52.242;20.940;2024-02-15T00:21:20;14.95;;;6.18;;
33593;SDS011;19920;52.242;20.940;2024-02-15T00:23:47;14.30;;;6.72;;
33593;SDS011;19920;52.242;20.940;2024-02-15T00:26:13;13.10;;;6.43;;
33593;SDS011;19920;52.242;20.940;2024-02-15T00:28:41;14.70;;;6.88;;
33593;SDS011;19920;52.242;20.940;2024-02-15T00:31:07;13.73;;;6.82;;
33593;SDS011;19920;52.242;20.940;2024-02-15T00:33:33;12.80;;;6.55;;
33593;SDS011;19920;52.242;20.940;2024-02-15T00:36:01;17.38;;;7.22;;
33593;SDS011;19920;52.242;20.940;2024-02-15T00:38:28;13.25;;;6.45;;
33593;SDS011;19920;52.242;20.940;2024-02-15T00:40:54;15.63;;;7.28;;
33593;SDS011;19920;52.242;20.940;2024-02-15T00:43:20;13.73;;;7.43;;
33593;SDS011;19920;52.242;20.940;2024-02-15T00:45:46;15.30;;;6.85;;
33593;SDS011;19920;52.242;20.940;2024-02-15T00:48:11;14.38;;;6.70;;
33593;SDS011;19920;52.242;20.940;2024-02-15T00:50:37;11.13;;;6.70;;
33593;SDS011;19920;52.242;20.940;2024-02-15T00:53:03;13.52;;;6.80;;
33593;SDS011;19920;52.242;20.940;2024-02-15T00:55:29;13.52;;;6.90;;
33593;SDS011;19920;52.242;20.940;2024-02-15T00:57:54;14.23;;;7.10;;
33593;SDS011;19920;52.242;20.940;2024-02-15T01:00:20;14.30;;;6.70;;
33593;SDS011;19920;52.242;20.940;2024-02-15T01:02:45;12.77;;;6.55;;
33593;SDS011;19920;52.242;20.940;2024-02-15T01:05:12;15.32;;;6.95;;
33593;SDS011;19920;52.242;20.940;2024-02-15T01:07:40;14.48;;;6.78;;
33593;SDS011;19920;52.242;20.940;2024-02-15T01:10:06;15.50;;;6.20;;
33593;SDS011;19920;52.242;20.940;2024-02-15T01:12:32;16.77;;;7.35;;
33593;SDS011;19920;52.242;20.940;2024-02-15T01:14:58;15.98;;;7.40;;
33593;SDS011;19920;52.242;20.940;2024-02-15T01:17:24;13.00;;;7.03;;
33593;SDS011;19920;52.242;20.940;2024-02-15T01:19:49;13.10;;;7.15;;
33593;SDS011;19920;52.242;20.940;2024-02-15T01:22:15;15.80;;;7.43;;
33593;SDS011;19920;52.242;20.940;2024-02-15T01:24:41;14.48;;;7.40;;
33593;SDS011;19920;52.242;20.940;2024-02-15T01:27:07;15.70;;;7.45;;
33593;SDS011;19920;52.242;20.940;2024-02-15T01:29:33;16.25;;;8.15;;
33593;SDS011;19920;52.242;20.940;2024-02-15T01:32:00;17.60;;;7.28;;
33593;SDS011;19920;52.242;20.940;2024-02-15T01:34:27;12.70;;;7.40;;
33593;SDS011;19920;52.242;20.940;2024-02-15T01:36:53;14.82;;;7.43;;
33593;SDS011;19920;52.242;20.940;2024-02-15T01:39:18;17.73;;;7.97;;
33593;SDS011;19920;52.242;20.940;2024-02-15T01:41:47;15.48;;;7.88;;
33593;SDS011;19920;52.242;20.940;2024-02-15T01:44:16;14.48;;;7.40;;
33593;SDS011;19920;52.242;20.940;2024-02-15T01:46:43;14.38;;;7.63;;
33593;SDS011;19920;52.242;20.940;2024-02-15T01:49:10;14.68;;;7.43;;
33593;SDS011;19920;52.242;20.940;2024-02-15T01:51:36;19.77;;;7.30;;
33593;SDS011;19920;52.242;20.940;2024-02-15T01:54:02;14.10;;;7.20;;
33593;SDS011;19920;52.242;20.940;2024-02-15T01:56:28;15.48;;;6.88;;
33593;SDS011;19920;52.242;20.940;2024-02-15T01:58:55;15.07;;;7.60;;
33593;SDS011;19920;52.242;20.940;2024-02-15T02:01:22;13.30;;;7.78;;
33593;SDS011;19920;52.242;20.940;2024-02-15T02:03:47;14.50;;;7.32;;
33593;SDS011;19920;52.242;20.940;2024-02-15T02:06:13;12.35;;;7.43;;
33593;SDS011;19920;52.242;20.940;2024-02-15T02:08:39;13.30;;;7.45;;
33593;SDS011;19920;52.242;20.940;2024-02-15T02:11:05;14.07;;;7.75;;
33593;SDS011;19920;52.242;20.940;2024-02-15T02:13:31;14.95;;;7.95;;
33593;SDS011;19920;52.242;20.940;2024-02-15T02:15:57;14.93;;;7.07;;
33593;SDS011;19920;52.242;20.940;2024-02-15T02:18:24;14.80;;;7.20;;
33593;SDS011;19920;52.242;20.940;2024-02-15T02:20:50;15.80;;;7.43;;
33593;SDS011;19920;52.242;20.940;2024-02-15T02:23:16;13.52;;;6.78;;
33593;SDS011;19920;52.242;20.940;2024-02-15T02:25:45;14.77;;;7.53;;
33593;SDS011;19920;52.242;20.940;2024-02-15T02:28:14;14.60;;;7.35;;
33593;SDS011;19920;52.242;20.940;2024-02-15T02:30:41;14.55;;;7.93;;
33593;SDS011;19920;52.242;20.940;2024-02-15T02:33:13;12.45;;;6.95;;
33593;SDS011;19920;52.242;20.940;2024-02-15T02:35:47;13.65;;;7.32;;
33593;SDS011;19920;52.242;20.940;2024-02-15T02:38:13;14.15;;;7.30;;
33593;SDS011;19920;52.242;20.940;2024-02-15T02:40:39;14.10;;;7.32;;
33593;SDS011;19920;52.242;20.940;2024-02-15T02:43:06;15.52;;;7.63;;
33593;SDS011;19920;52.242;20.940;2024-02-15T02:45:32;12.73;;;7.00;;
33593;SDS011;19920;52.242;20.940;2024-02-15T02:47:58;15.82;;;7.30;;
33593;SDS011;19920;52.242;20.940;2024-02-15T02:50:23;16.50;;;7.85;;
33593;SDS011;19920;52.242;20.940;2024-02-15T02:52:49;14.50;;;7.95;;
33593;SDS011;19920;52.242;20.940;2024-02-15T02:55:15;14.10;;;7.72;;
33593;SDS011;19920;52.242;20.940;2024-02-15T02:57:42;16.25;;;7.85;;
33593;SDS011;19920;52.242;20.940;2024-02-15T03:00:09;15.75;;;7.30;;
33593;SDS011;19920;52.242;20.940;2024-02-15T03:02:41;15.95;;;8.02;;
33593;SDS011;19920;52.242;20.940;2024-02-15T03:05:10;15.32;;;8.15;;
33593;SDS011;19920;52.242;20.940;2024-02-15T03:07:37;13.77;;;7.53;;
33593;SDS011;19920;52.242;20.940;2024-02-15T03:10:06;15.70;;;7.90;;
33593;SDS011;19920;52.242;20.940;2024-02-15T03:12:35;15.20;;;7.85;;
33593;SDS011;19920;52.242;20.940;2024-02-15T03:15:04;17.30;;;8.27;;
33593;SDS011;19920;52.242;20.940;2024-02-15T03:17:36;15.20;;;7.80;;
33593;SDS011;19920;52.242;20.940;2024-02-15T03:20:06;12.65;;;7.68;;
33593;SDS011;19920;52.242;20.940;2024-02-15T03:22:37;13.63;;;7.78;;
33593;SDS011;19920;52.242;20.940;2024-02-15T03:25:03;13.85;;;7.40;;
33593;SDS011;19920;52.242;20.940;2024-02-15T03:27:35;16.02;;;7.95;;
33593;SDS011;19920;52.242;20.940;2024-02-15T03:30:02;17.63;;;8.07;;
33593;SDS011;19920;52.242;20.940;2024-02-15T03:32:29;18.38;;;8.07;;
33593;SDS011;19920;52.242;20.940;2024-02-15T03:34:55;14.82;;;7.97;;
33593;SDS011;19920;52.242;20.940;2024-02-15T03:37:20;17.92;;;7.75;;
33593;SDS011;19920;52.242;20.940;2024-02-15T03:39:46;17.02;;;8.48;;
33593;SDS011;19920;52.242;20.940;2024-02-15T03:42:12;18.10;;;8.05;;
33593;SDS011;19920;52.242;20.940;2024-02-15T03:44:37;17.33;;;8.88;;
33593;SDS011;19920;52.242;20.940;2024-02-15T03:47:03;15.98;;;8.82;;
33593;SDS011;19920;52.242;20.940;2024-02-15T03:49:30;16.38;;;8.65;;
33593;SDS011;19920;52.242;20.940;2024-02-15T03:51:56;16.27;;;8.18;;
33593;SDS011;19920;52.242;20.940;2024-02-15T03:54:24;14.93;;;8.25;;
33593;SDS011;19920;52.242;20.940;2024-02-15T03:56:50;15.52;;;8.63;;
33593;SDS011;19920;52.242;20.940;2024-02-15T03:59:18;15.30;;;8.57;;
33593;SDS011;19920;52.242;20.940;2024-02-15T04:01:50;17.88;;;8.93;;
33593;SDS011;19920;52.242;20.940;2024-02-15T04:04:15;19.50;;;9.20;;
33593;SDS011;19920;52.242;20.940;2024-02-15T04:06:41;18.65;;;8.35;;
33593;SDS011;19920;52.242;20.940;2024-02-15T04:09:07;15.85;;;8.32;;
33593;SDS011;19920;52.242;20.940;2024-02-15T04:11:35;14.43;;;8.20;;
33593;SDS011;19920;52.242;20.940;2024-02-15T04:14:02;14.98;;;8.50;;
33593;SDS011;19920;52.242;20.940;2024-02-15T04:16:28;14.73;;;8.15;;
33593;SDS011;19920;52.242;20.940;2024-02-15T04:18:56;15.98;;;8.60;;
33593;SDS011;19920;52.242;20.940;2024-02-15T04:21:24;15.95;;;8.00;;
33593;SDS011;19920;52.242;20.940;2024-02-15T04:23:52;14.45;;;7.95;;
33593;SDS011;19920;52.242;20.940;2024-02-15T04:26:19;15.88;;;8.13;;
33593;SDS011;19920;52.242;20.940;2024-02-15T04:28:45;17.63;;;8.23;;
33593;SDS011;19920;52.242;20.940;2024-02-15T04:31:17;16.35;;;8.60;;
33593;SDS011;19920;52.242;20.940;2024-02-15T04:33:42;15.63;;;7.63;;
33593;SDS011;19920;52.242;20.940;2024-02-15T04:36:08;14.90;;;7.85;;
33593;SDS011;19920;52.242;20.940;2024-02-15T04:38:34;14.77;;;8.15;;
33593;SDS011;19920;52.242;20.940;2024-02-15T04:41:03;15.63;;;8.35;;
33593;SDS011;19920;52.242;20.940;2024-02-15T04:43:30;16.15;;;8.35;;
33593;SDS011;19920;52.242;20.940;2024-02-15T04:45:58;13.95;;;7.82;;
33593;SDS011;19920;52.242;20.940;2024-02-15T04:48:25;15.05;;;8.00;;
33593;SDS011;19920;52.242;20.940;2024-02-15T04:50:52;16.92;;;8.07;;
33593;SDS011;19920;52.242;20.940;2024-02-15T04:53:19;17.55;;;7.90;;
33593;SDS011;19920;52.242;20.940;2024-02-15T04:55:46;19.02;;;8.50;;
33593;SDS011;19920;52.242;20.940;2024-02-15T04:58:11;14.45;;;8.15;;
33593;SDS011;19920;52.242;20.940;2024-02-15T05:00:37;17.90;;;8.27;;
33593;SDS011;19920;52.242;20.940;2024-02-15T05:03:03;16.15;;;8.13;;
33593;SDS011;19920;52.242;20.940;2024-02-15T05:05:29;15.15;;;8.00;;
33593;SDS011;19920;52.242;20.940;2024-02-15T05:07:54;15.77;;;8.73;;
33593;SDS011;19920;52.242;20.940;2024-02-15T05:10:20;14.25;;;7.97;;
33593;SDS011;19920;52.242;20.940;2024-02-15T05:12:46;14.77;;;8.15;;
33593;SDS011;19920;52.242;20.940;2024-02-15T05:15:13;16.92;;;7.85;;
33593;SDS011;19920;52.242;20.940;2024-02-15T05:17:42;14.48;;;7.90;;
33593;SDS011;19920;52.242;20.940;2024-02-15T05:20:11;14.30;;;8.10;;
33593;SDS011;19920;52.242;20.940;2024-02-15T05:22:38;15.90;;;8.68;;
33593;SDS011;19920;52.242;20.940;2024-02-15T05:25:07;14.43;;;8.18;;
33593;SDS011;19920;52.242;20.940;2024-02-15T05:27:34;18.42;;;8.57;;
33593;SDS011;19920;52.242;20.940;2024-02-15T05:30:01;17.45;;;8.70;;
33593;SDS011;19920;52.242;20.940;2024-02-15T05:32:31;16.23;;;8.82;;
33593;SDS011;19920;52.242;20.940;2024-02-15T05:34:58;17.27;;;9.25;;
33593;SDS011;19920;52.242;20.940;2024-02-15T05:37:23;16.23;;;8.48;;
33593;SDS011;19920;52.242;20.940;2024-02-15T05:39:49;14.45;;;8.43;;
33593;SDS011;19920;52.242;20.940;2024-02-15T05:42:18;20.90;;;9.47;;
33593;SDS011;19920;52.242;20.940;2024-02-15T05:44:44;18.60;;;9.65;;
33593;SDS011;19920;52.242;20.940;2024-02-15T05:47:10;19.52;;;9.15;;
33593;SDS011;19920;52.242;20.940;2024-02-15T05:49:36;21.50;;;9.80;;
33593;SDS011;19920;52.242;20.940;2024-02-15T05:52:02;19.08;;;8.75;;
33593;SDS011;19920;52.242;20.940;2024-02-15T05:54:28;20.17;;;8.90;;
33593;SDS011;19920;52.242;20.940;2024-02-15T05:56:54;15.98;;;8.25;;
33593;SDS011;19920;52.242;20.940;2024-02-15T05:59:20;18.50;;;9.73;;
33593;SDS011;19920;52.242;20.940;2024-02-15T06:01:46;16.77;;;9.68;;
33593;SDS011;19920;52.242;20.940;2024-02-15T06:04:15;19.27;;;10.63;;
33593;SDS011;19920;52.242;20.940;2024-02-15T06:06:41;19.58;;;11.00;;
33593;SDS011;19920;52.242;20.940;2024-02-15T06:09:07;17.85;;;11.02;;
33593;SDS011;19920;52.242;20.940;2024-02-15T06:11:33;19.05;;;10.38;;
33593;SDS011;19920;52.242;20.940;2024-02-15T06:13:59;23.40;;;11.00;;
33593;SDS011;19920;52.242;20.940;2024-02-15T06:16:25;18.77;;;10.32;;
33593;SDS011;19920;52.242;20.940;2024-02-15T06:18:51;19.13;;;11.68;;
33593;SDS011;19920;52.242;20.940;2024-02-15T06:21:17;23.80;;;12.38;;
33593;SDS011;19920;52.242;20.940;2024-02-15T06:23:43;25.02;;;12.20;;
33593;SDS011;19920;52.242;20.940;2024-02-15T06:26:09;21.75;;;12.25;;
33593;SDS011;19920;52.242;20.940;2024-02-15T06:28:34;24.25;;;12.52;;
33593;SDS011;19920;52.242;20.940;2024-02-15T06:31:19;24.60;;;13.30;;
33593;SDS011;19920;52.242;20.940;2024-02-15T06:34:03;22.75;;;12.57;;
33593;SDS011;19920;52.242;20.940;2024-02-15T06:36:48;25.85;;;13.45;;
33593;SDS011;19920;52.242;20.940;2024-02-15T06:39:41;21.77;;;13.43;;
33593;SDS011;19920;52.242;20.940;2024-02-15T06:42:10;22.27;;;13.65;;
33593;SDS011;19920;52.242;20.940;2024-02-15T06:44:39;24.13;;;14.40;;
33593;SDS011;19920;52.242;20.940;2024-02-15T06:47:05;25.00;;;14.45;;
33593;SDS011;19920;52.242;20.940;2024-02-15T06:49:31;28.58;;;15.48;;
33593;SDS011;19920;52.242;20.940;2024-02-15T06:51:58;23.80;;;13.88;;
33593;SDS011;19920;52.242;20.940;2024-02-15T06:54:27;27.80;;;15.15;;
33593;SDS011;19920;52.242;20.940;2024-02-15T06:56:52;29.60;;;16.10;;
33593;SDS011;19920;52.242;20.940;2024-02-15T06:59:19;29.02;;;16.20;;
33593;SDS011;19920;52.242;20.940;2024-02-15T07:01:47;27.15;;;15.90;;
33593;SDS011;19920;52.242;20.940;2024-02-15T07:06:43;30.52;;;15.77;;
33593;SDS011;19920;52.242;20.940;2024-02-15T07:09:12;26.13;;;14.95;;
33593;SDS011;19920;52.242;20.940;2024-02-15T07:11:40;32.47;;;16.90;;
33593;SDS011;19920;52.242;20.940;2024-02-15T07:14:06;28.70;;;16.05;;
33593;SDS011;19920;52.242;20.940;2024-02-15T07:16:32;32.53;;;16.38;;
33593;SDS011;19920;52.242;20.940;2024-02-15T07:18:58;29.85;;;16.95;;
33593;SDS011;19920;52.242;20.940;2024-02-15T07:21:25;31.00;;;17.20;;
33593;SDS011;19920;52.242;20.940;2024-02-15T07:23:54;29.20;;;17.65;;
33593;SDS011;19920;52.242;20.940;2024-02-15T07:26:21;30.88;;;17.63;;
33593;SDS011;19920;52.242;20.940;2024-02-15T07:28:51;28.05;;;17.60;;
33593;SDS011;19920;52.242;20.940;2024-02-15T07:31:23;38.13;;;18.40;;
33593;SDS011;19920;52.242;20.940;2024-02-15T07:33:52;30.80;;;17.95;;
33593;SDS011;19920;52.242;20.940;2024-02-15T07:36:19;32.88;;;17.60;;
33593;SDS011;19920;52.242;20.940;2024-02-15T07:38:46;27.80;;;17.38;;
33593;SDS011;19920;52.242;20.940;2024-02-15T07:41:21;35.30;;;20.08;;
33593;SDS011;19920;52.242;20.940;2024-02-15T07:43:48;26.55;;;17.23;;
33593;SDS011;19920;52.242;20.940;2024-02-15T07:46:14;31.13;;;18.55;;
33593;SDS011;19920;52.242;20.940;2024-02-15T07:48:41;34.92;;;19.02;;
33593;SDS011;19920;52.242;20.940;2024-02-15T07:51:14;30.10;;;18.45;;
33593;SDS011;19920;52.242;20.940;2024-02-15T07:53:41;30.17;;;18.80;;
33593;SDS011;19920;52.242;20.940;2024-02-15T07:56:08;29.65;;;18.10;;
33593;SDS011;19920;52.242;20.940;2024-02-15T07:58:37;33.20;;;18.98;;
33593;SDS011;19920;52.242;20.940;2024-02-15T08:01:14;30.25;;;19.45;;
33593;SDS011;19920;52.242;20.940;2024-02-15T08:03:41;30.70;;;19.95;;
33593;SDS011;19920;52.242;20.940;2024-02-15T08:06:14;30.73;;;19.80;;
33593;SDS011;19920;52.242;20.940;2024-02-15T08:08:41;35.10;;;20.77;;
33593;SDS011;19920;52.242;20.940;2024-02-15T08:11:11;33.03;;;20.00;;
33593;SDS011;19920;52.242;20.940;2024-02-15T08:13:41;32.75;;;20.73;;
33593;SDS011;19920;52.242;20.940;2024-02-15T08:16:19;33.15;;;19.83;;
33593;SDS011;19920;52.242;20.940;2024-02-15T08:18:47;37.50;;;21.42;;
33593;SDS011;19920;52.242;20.940;2024-02-15T08:21:25;39.03;;;21.52;;
33593;SDS011;19920;52.242;20.940;2024-02-15T08:26:17;38.45;;;20.48;;
33593;SDS011;19920;52.242;20.940;2024-02-15T08:28:43;36.55;;;21.20;;
33593;SDS011;19920;52.242;20.940;2024-02-15T08:31:09;33.40;;;21.50;;
33593;SDS011;19920;52.242;20.940;2024-02-15T08:33:36;44.33;;;21.77;;
33593;SDS011;19920;52.242;20.940;2024-02-15T08:36:04;33.88;;;21.20;;
33593;SDS011;19920;52.242;20.940;2024-02-15T08:38:30;36.80;;;21.58;;
33593;SDS011;19920;52.242;20.940;2024-02-15T08:40:56;38.55;;;21.98;;
33593;SDS011;19920;52.242;20.940;2024-02-15T08:43:21;36.05;;;22.70;;
33593;SDS011;19920;52.242;20.940;2024-02-15T08:45:48;39.58;;;23.60;;
33593;SDS011;19920;52.242;20.940;2024-02-15T08:48:15;42.17;;;23.40;;
33593;SDS011;19920;52.242;20.940;2024-02-15T08:50:41;35.22;;;22.38;;
33593;SDS011;19920;52.242;20.940;2024-02-15T08:53:07;41.88;;;23.35;;
33593;SDS011;19920;52.242;20.940;2024-02-15T08:55:32;33.22;;;22.35;;
33593;SDS011;19920;52.242;20.940;2024-02-15T08:58:00;35.80;;;22.58;;
33593;SDS011;19920;52.242;20.940;2024-02-15T09:00:28;38.67;;;22.23;;
33593;SDS011;19920;52.242;20.940;2024-02-15T09:02:55;34.22;;;22.15;;
33593;SDS011;19920;52.242;20.940;2024-02-15T09:05:22;36.15;;;23.02;;
33593;SDS011;19920;52.242;20.940;2024-02-15T09:07:49;35.33;;;22.38;;
33593;SDS011;19920;52.242;20.940;2024-02-15T09:10:17;38.28;;;23.02;;
33593;SDS011;19920;52.242;20.940;2024-02-15T09:12:51;40.58;;;24.35;;
33593;SDS011;19920;52.242;20.940;2024-02-15T09:15:20;39.88;;;22.67;;
33593;SDS011;19920;52.242;20.940;2024-02-15T09:17:48;42.10;;;24.80;;
33593;SDS011;19920;52.242;20.940;2024-02-15T09:20:14;39.72;;;24.20;;
33593;SDS011;19920;52.242;20.940;2024-02-15T09:22:47;45.97;;;24.25;;
33593;SDS011;19920;52.242;20.940;2024-02-15T09:25:17;38.70;;;23.70;;
33593;SDS011;19920;52.242;20.940;2024-02-15T09:27:48;39.83;;;23.42;;
33593;SDS011;19920;52.242;20.940;2024-02-15T09:30:17;44.38;;;24.45;;
33593;SDS011;19920;52.242;20.940;2024-02-15T09:32:50;38.80;;;24.42;;
33593;SDS011;19920;52.242;20.940;2024-02-15T09:35:16;37.40;;;24.02;;
33593;SDS011;19920;52.242;20.940;2024-02-15T09:37:46;39.63;;;23.92;;
33593;SDS011;19920;52.242;20.940;2024-02-15T09:40:15;40.05;;;24.05;;
33593;SDS011;19920;52.242;20.940;2024-02-15T09:42:45;45.20;;;24.35;;
33593;SDS011;19920;52.242;20.940;2024-02-15T09:45:12;41.72;;;25.50;;
33593;SDS011;19920;52.242;20.940;2024-02-15T09:47:43;40.13;;;24.38;;
33593;SDS011;19920;52.242;20.940;2024-02-15T09:50:10;40.30;;;24.85;;
33593;SDS011;19920;52.242;20.940;2024-02-15T09:52:51;39.08;;;24.42;;
33593;SDS011;19920;52.242;20.940;2024-02-15T09:55:21;44.85;;;25.75;;
33593;SDS011;19920;52.242;20.940;2024-02-15T09:57:48;43.55;;;25.45;;
33593;SDS011;19920;52.242;20.940;2024-02-15T10:00:15;39.60;;;25.73;;
33593;SDS011;19920;52.242;20.940;2024-02-15T10:02:42;45.67;;;25.60;;
33593;SDS011;19920;52.242;20.940;2024-02-15T10:05:12;42.72;;;24.73;;
33593;SDS011;19920;52.242;20.940;2024-02-15T10:07:42;39.97;;;25.58;;
33593;SDS011;19920;52.242;20.940;2024-02-15T10:10:18;43.20;;;25.25;;
33593;SDS011;19920;52.242;20.940;2024-02-15T10:17:55;40.90;;;24.58;;
33593;SDS011;19920;52.242;20.940;2024-02-15T10:20:23;38.55;;;23.88;;
33593;SDS011;19920;52.242;20.940;2024-02-15T10:22:51;39.33;;;26.27;;
33593;SDS011;19920;52.242;20.940;2024-02-15T10:25:23;43.08;;;24.92;;
33593;SDS011;19920;52.242;20.940;2024-02-15T10:27:52;41.00;;;25.30;;
33593;SDS011;19920;52.242;20.940;2024-02-15T10:30:33;40.90;;;25.27;;
33593;SDS011;19920;52.242;20.940;2024-02-15T10:33:00;37.67;;;23.73;;
33593;SDS011;19920;52.242;20.940;2024-02-15T10:35:29;38.47;;;25.60;;
33593;SDS011;19920;52.242;20.940;2024-02-15T10:40:34;41.42;;;24.70;;
33593;SDS011;19920;52.242;20.940;2024-02-15T10:43:02;42.58;;;25.67;;
33593;SDS011;19920;52.242;20.940;2024-02-15T10:45:30;42.35;;;25.60;;
33593;SDS011;19920;52.242;20.940;2024-02-15T10:47:56;41.05;;;25.80;;
33593;SDS011;19920;52.242;20.940;2024-02-15T10:50:22;44.25;;;26.15;;
33593;SDS011;19920;52.242;20.940;2024-02-15T10:52:54;42.58;;;25.95;;
33593;SDS011;19920;52.242;20.940;2024-02-15T10:55:22;42.35;;;26.75;;
33593;SDS011;19920;52.242;20.940;2024-02-15T10:58:01;40.88;;;25.83;;
33593;SDS011;19920;52.242;20.940;2024-02-15T11:00:30;42.75;;;26.17;;
33593;SDS011;19920;52.242;20.940;2024-02-15T11:03:02;41.53;;;25.05;;
33593;SDS011;19920;52.242;20.940;2024-02-15T11:05:33;40.38;;;26.27;;
33593;SDS011;19920;52.242;20.940;2024-02-15T11:08:04;39.55;;;24.75;;
33593;SDS011;19920;52.242;20.940;2024-02-15T11:10:32;41.33;;;25.63;;
33593;SDS011;19920;52.242;20.940;2024-02-15T11:12:59;41.08;;;26.13;;
33593;SDS011;19920;52.242;20.940;2024-02-15T11:18:11;40.80;;;26.67;;
33593;SDS011;19920;52.242;20.940;2024-02-15T11:23:04;41.83;;;25.70;;
33593;SDS011;19920;52.242;20.940;2024-02-15T11:25:33;39.88;;;27.13;;
33593;SDS011;19920;52.242;20.940;2024-02-15T11:30:48;43.80;;;27.20;;
33593;SDS011;19920;52.242;20.940;2024-02-15T11:33:33;43.97;;;27.10;;
33593;SDS011;19920;52.242;20.940;2024-02-15T11:36:10;42.22;;;28.48;;
33593;SDS011;19920;52.242;20.940;2024-02-15T11:38:37;41.70;;;27.42;;
33593;SDS011;19920;52.242;20.940;2024-02-15T11:41:08;44.83;;;28.15;;
33593;SDS011;19920;52.242;20.940;2024-02-15T11:46:23;45.47;;;26.70;;
33593;SDS011;19920;52.242;20.940;2024-02-15T11:48:50;41.90;;;27.55;;
33593;SDS011;19920;52.242;20.940;2024-02-15T11:54:01;47.17;;;28.52;;
33593;SDS011;19920;52.242;20.940;2024-02-15T11:59:13;43.72;;;27.58;;
33593;SDS011;19920;52.242;20.940;2024-02-15T12:01:54;40.85;;;27.30;;
33593;SDS011;19920;52.242;20.940;2024-02-15T12:04:39;43.85;;;27.35;;
33593;SDS011;19920;52.242;20.940;2024-02-15T12:07:24;43.78;;;28.17;;
33593;SDS011;19920;52.242;20.940;2024-02-15T12:10:18;44.15;;;28.38;;
33593;SDS011;19920;52.242;20.940;2024-02-15T12:13:19;40.85;;;28.00;;
33593;SDS011;19920;52.242;20.940;2024-02-15T12:16:03;49.08;;;28.80;;
33593;SDS011;19920;52.242;20.940;2024-02-15T12:18:48;40.42;;;27.42;;
33593;SDS011;19920;52.242;20.940;2024-02-15T12:21:18;48.58;;;28.58;;
33593;SDS011;19920;52.242;20.940;2024-02-15T12:23:49;43.42;;;28.15;;
33593;SDS011;19920;52.242;20.940;2024-02-15T12:26:20;42.22;;;28.58;;
33593;SDS011;19920;52.242;20.940;2024-02-15T12:28:52;47.05;;;28.55;;
33593;SDS011;19920;52.242;20.940;2024-02-15T12:31:22;40.20;;;28.05;;
33593;SDS011;19920;52.242;20.940;2024-02-15T12:34:01;42.15;;;27.58;;
33593;SDS011;19920;52.242;20.940;2024-02-15T12:36:33;43.60;;;28.60;;
33593;SDS011;19920;52.242;20.940;2024-02-15T12:39:05;41.97;;;27.48;;
33593;SDS011;19920;52.242;20.940;2024-02-15T12:44:15;44.67;;;28.77;;
33593;SDS011;19920;52.242;20.940;2024-02-15T12:46:41;44.30;;;28.30;;
33593;SDS011;19920;52.242;20.940;2024-02-15T12:49:24;46.50;;;28.58;;
33593;SDS011;19920;52.242;20.940;2024-02-15T12:51:53;45.28;;;29.23;;
33593;SDS011;19920;52.242;20.940;2024-02-15T12:54:39;43.67;;;27.90;;
33593;SDS011;19920;52.242;20.940;2024-02-15T12:57:07;43.58;;;28.30;;
33593;SDS011;19920;52.242;20.940;2024-02-15T12:59:34;40.85;;;26.95;;
33593;SDS011;19920;52.242;20.940;2024-02-15T13:02:01;43.08;;;27.92;;
33593;SDS011;19920;52.242;20.940;2024-02-15T13:04:26;42.10;;;27.40;;
33593;SDS011;19920;52.242;20.940;2024-02-15T13:06:53;41.95;;;27.55;;
33593;SDS011;19920;52.242;20.940;2024-02-15T13:09:18;39.25;;;26.05;;
33593;SDS011;19920;52.242;20.940;2024-02-15T13:11:44;40.85;;;27.50;;
33593;SDS011;19920;52.242;20.940;2024-02-15T13:14:12;39.97;;;26.83;;
33593;SDS011;19920;52.242;20.940;2024-02-15T13:16:38;39.55;;;26.50;;
33593;SDS011;19920;52.242;20.940;2024-02-15T13:19:03;37.75;;;26.08;;
33593;SDS011;19920;52.242;20.940;2024-02-15T13:21:32;42.08;;;26.77;;
33593;SDS011;19920;52.242;20.940;2024-02-15T13:23:59;38.85;;;25.45;;
33593;SDS011;19920;52.242;20.940;2024-02-15T13:26:29;42.85;;;26.50;;
33593;SDS011;19920;52.242;20.940;2024-02-15T13:28:55;40.33;;;26.77;;
33593;SDS011;19920;52.242;20.940;2024-02-15T13:31:21;37.30;;;24.55;;
33593;SDS011;19920;52.242;20.940;2024-02-15T13:33:47;37.58;;;24.52;;
33593;SDS011;19920;52.242;20.940;2024-02-15T13:36:13;37.78;;;25.65;;
33593;SDS011;19920;52.242;20.940;2024-02-15T13:38:40;41.42;;;25.50;;
33593;SDS011;19920;52.242;20.940;2024-02-15T13:41:07;40.08;;;26.23;;
33593;SDS011;19920;52.242;20.940;2024-02-15T13:43:33;39.30;;;25.13;;
33593;SDS011;19920;52.242;20.940;2024-02-15T13:45:59;38.78;;;24.92;;
33593;SDS011;19920;52.242;20.940;2024-02-15T13:48:27;36.05;;;24.33;;
33593;SDS011;19920;52.242;20.940;2024-02-15T13:50:55;40.85;;;23.73;;
33593;SDS011;19920;52.242;20.940;2024-02-15T13:53:21;37.08;;;23.95;;
33593;SDS011;19920;52.242;20.940;2024-02-15T13:55:48;42.60;;;26.45;;
33593;SDS011;19920;52.242;20.940;2024-02-15T13:58:17;33.20;;;23.13;;
33593;SDS011;19920;52.242;20.940;2024-02-15T14:00:43;40.33;;;24.17;;
33593;SDS011;19920;52.242;20.940;2024-02-15T14:03:10;35.20;;;23.13;;
33593;SDS011;19920;52.242;20.940;2024-02-15T14:05:36;36.03;;;24.52;;
33593;SDS011;19920;52.242;20.940;2024-02-15T14:08:04;37.17;;;23.55;;
33593;SDS011;19920;52.242;20.940;2024-02-15T14:10:31;38.70;;;23.35;;
33593;SDS011;19920;52.242;20.940;2024-02-15T14:12:59;36.33;;;23.07;;
33593;SDS011;19920;52.242;20.940;2024-02-15T14:15:32;35.22;;;22.80;;
33593;SDS011;19920;52.242;20.940;2024-02-15T14:18:02;36.50;;;22.73;;
33593;SDS011;19920;52.242;20.940;2024-02-15T14:20:43;33.03;;;22.40;;
33593;SDS011;19920;52.242;20.940;2024-02-15T14:23:11;32.10;;;21.15;;
33593;SDS011;19920;52.242;20.940;2024-02-15T14:25:40;32.72;;;21.30;;
33593;SDS011;19920;52.242;20.940;2024-02-15T14:28:06;32.45;;;21.52;;
33593;SDS011;19920;52.242;20.940;2024-02-15T14:30:36;33.90;;;21.48;;
33593;SDS011;19920;52.242;20.940;2024-02-15T14:33:21;30.23;;;21.20;;
33593;SDS011;19920;52.242;20.940;2024-02-15T14:35:47;37.30;;;22.60;;
33593;SDS011;19920;52.242;20.940;2024-02-15T14:38:14;34.45;;;21.75;;
33593;SDS011;19920;52.242;20.940;2024-02-15T14:40:42;34.63;;;20.88;;
33593;SDS011;19920;52.242;20.940;2024-02-15T14:43:10;32.92;;;21.65;;
33593;SDS011;19920;52.242;20.940;2024-02-15T14:45:38;34.35;;;21.60;;
33593;SDS011;19920;52.242;20.940;2024-02-15T14:53:06;36.22;;;20.52;;
33593;SDS011;19920;52.242;20.940;2024-02-15T14:55:34;36.13;;;21.17;;
33593;SDS011;19920;52.242;20.940;2024-02-15T14:58:12;32.47;;;20.58;;